Time;durP1;ratioP1;P1;durP2;ratioP2;P2;SDS_P1;SDS_P2;PMS_P1;PMS_P2;Temp;Humidity;BMP_temperature;BMP_pressure;BME280_temperature;BME280_humidity;BME280_pressure;Samples;Min_cycle;Max_cycle;Signal;HPM_P1;HPM_P2
2022/02/07 00:03:02;;;;;;;696.13;649.30;;;3.10;99.90;;;;;;6036716;23;20426;-82
2022/02/07 00:06:01;;;;;;;710.80;660.40;;;3.00;99.90;;;;;;6035879;23;20449;-82
2022/02/07 00:11:55;;;;;;;724.90;673.40;;;3.30;99.90;;;;;;6132476;23;20414;-82
2022/02/07 00:14:59;;;;;;;735.08;682.88;;;3.20;99.90;;;;;;6167130;23;20421;-82
2022/02/07 00:18:13;;;;;;;709.00;659.30;;;3.40;99.90;;;;;;6165580;23;20229;-82
2022/02/07 00:24:42;;;;;;;706.53;657.20;;;3.30;99.90;;;;;;6109511;23;20477;-82
2022/02/07 00:28:01;;;;;;;731.17;679.87;;;3.40;99.90;;;;;;6168083;23;20971;-82
2022/02/07 00:30:56;;;;;;;;;;;;;;;;;;;;;
2022/02/07 00:33:37;;;;;;;727.03;679.30;;;3.50;99.90;;;;;;6104370;23;20415;-82
2022/02/07 00:36:17;;;;;;;767.90;717.20;;;3.60;99.90;;;;;;6166045;23;20981;-82
2022/02/07 00:52:10;;;;;;;684.57;642.07;;;3.00;99.90;;;;;;6057347;23;20416;-82
2022/02/07 00:54:55;;;;;;;691.10;646.30;;;3.10;99.90;;;;;;6077308;23;20417;-82
2022/02/07 01:56:36;;;;;;;;;;;;;;;;;;;;;
2022/02/07 02:03:12;;;;;;;656.57;616.90;;;3.80;99.90;;;;;;6053653;23;20412;-84
2022/02/07 02:09:43;;;;;;;;;;;;;;;;;;;;;
2022/02/07 02:36:24;;;;;;;775.17;716.87;;;3.00;99.90;;;;;;6163631;23;20452;-81
2022/02/07 02:45:22;;;;;;;762.03;705.27;;;2.90;99.90;;;;;;6189427;23;20405;-80
2022/02/07 02:47:08;;;;;;;762.90;706.40;;;2.90;99.90;;;;;;6160270;23;20445;-81
2022/02/07 02:49:45;;;;;;;748.30;692.80;;;2.90;99.90;;;;;;6158883;23;20913;-80
2022/02/07 02:52:12;;;;;;;758.93;702.50;;;2.90;99.90;;;;;;6160115;23;20413;-79
2022/02/07 02:54:39;;;;;;;769.00;711.47;;;2.80;99.90;;;;;;6159898;23;20418;-81
2022/02/07 02:57:07;;;;;;;771.37;712.50;;;2.80;99.90;;;;;;6160155;23;20414;-80
2022/02/07 02:59:34;;;;;;;783.23;723.93;;;2.70;99.90;;;;;;6159883;23;20750;-81
2022/02/07 03:02:01;;;;;;;777.50;719.60;;;2.70;99.90;;;;;;6160175;23;20413;-81
2022/02/07 03:04:27;;;;;;;786.00;726.80;;;2.70;99.90;;;;;;6160389;23;20417;-80
2022/02/07 03:06:54;;;;;;;778.17;719.77;;;2.70;99.90;;;;;;6160072;23;20931;-81
2022/02/07 03:09:21;;;;;;;779.67;720.67;;;2.70;99.90;;;;;;6160214;23;20420;-80
2022/02/07 03:11:47;;;;;;;783.20;725.50;;;2.70;99.90;;;;;;6159038;23;20414;-83
2022/02/07 03:14:22;;;;;;;780.33;723.10;;;2.60;99.90;;;;;;6159677;23;20434;-80
2022/02/07 03:16:50;;;;;;;793.13;737.33;;;2.70;99.90;;;;;;6160688;23;20424;-81
2022/02/07 03:19:18;;;;;;;797.97;741.37;;;2.70;99.90;;;;;;6158192;23;20413;-81
2022/02/07 03:21:45;;;;;;;801.80;747.70;;;2.70;99.90;;;;;;6159155;23;20440;-81
2022/02/07 03:24:12;;;;;;;800.63;748.20;;;2.80;99.90;;;;;;6160336;23;20978;-81
2022/02/07 03:26:42;;;;;;;788.73;738.57;;;2.80;99.90;;;;;;6159482;23;20488;-81
2022/02/07 03:29:10;;;;;;;747.23;701.30;;;2.70;99.90;;;;;;6159581;23;20442;-80
2022/02/07 03:31:38;;;;;;;734.17;688.37;;;2.90;99.90;;;;;;6159002;23;20414;-81
2022/02/07 03:34:05;;;;;;;738.40;691.40;;;2.80;99.90;;;;;;6160102;23;20441;-81
2022/02/07 03:36:32;;;;;;;717.27;671.07;;;2.70;99.90;;;;;;6160939;23;20442;-81
2022/02/07 03:39:01;;;;;;;723.43;676.30;;;2.70;99.90;;;;;;6169023;23;20497;-80
2022/02/07 03:41:28;;;;;;;685.07;641.73;;;2.70;99.90;;;;;;6159528;23;20432;-82
2022/02/07 03:43:55;;;;;;;645.67;605.47;;;2.70;99.90;;;;;;6160263;23;20434;-80
2022/02/07 03:46:22;;;;;;;653.30;612.10;;;2.80;99.90;;;;;;6160571;23;20414;-81
2022/02/07 03:48:50;;;;;;;625.33;586.50;;;2.80;99.90;;;;;;6159123;23;20414;-81
2022/02/07 03:51:17;;;;;;;648.27;606.83;;;2.80;99.90;;;;;;6159882;23;20421;-81
2022/02/07 03:53:44;;;;;;;654.53;612.63;;;2.70;99.90;;;;;;6159193;23;20440;-81
2022/02/07 03:56:10;;;;;;;648.80;606.87;;;2.70;99.90;;;;;;6160469;23;20434;-80
2022/02/07 03:58:37;;;;;;;629.70;589.00;;;2.70;99.90;;;;;;6161642;23;20416;-81
2022/02/07 04:01:04;;;;;;;636.60;594.50;;;2.80;99.90;;;;;;6161640;23;20424;-81
2022/02/07 04:03:33;;;;;;;642.80;601.87;;;2.80;99.90;;;;;;6161979;23;20430;-81
2022/02/07 04:06:04;;;;;;;630.03;589.07;;;2.80;99.90;;;;;;6162227;23;20409;-81
2022/02/07 04:08:34;;;;;;;636.53;594.90;;;2.90;99.90;;;;;;6162318;23;20409;-81
2022/02/07 04:11:06;;;;;;;628.07;587.93;;;2.90;99.90;;;;;;6162486;23;20440;-81
2022/02/07 04:13:35;;;;;;;617.93;579.03;;;2.80;99.90;;;;;;6162084;23;20437;-81
2022/02/07 04:16:03;;;;;;;601.70;563.17;;;3.00;99.90;;;;;;6162357;23;20434;-81
2022/02/07 04:18:34;;;;;;;588.63;551.23;;;2.90;99.90;;;;;;6162309;23;20418;-81
2022/02/07 04:21:03;;;;;;;574.80;538.40;;;3.00;99.90;;;;;;6162103;23;20473;-81
2022/02/07 04:23:30;;;;;;;561.70;526.00;;;3.10;99.90;;;;;;6161711;23;20434;-81
2022/02/07 04:25:57;;;;;;;549.00;515.80;;;3.10;99.90;;;;;;6161390;23;20410;-81
2022/02/07 04:28:23;;;;;;;556.50;522.53;;;3.00;99.90;;;;;;6160926;23;20424;-81
2022/02/07 04:30:50;;;;;;;564.87;532.07;;;3.20;99.90;;;;;;6161900;23;20623;-82
2022/02/07 04:33:17;;;;;;;553.70;521.60;;;3.10;99.90;;;;;;6161470;23;20960;-81
2022/02/07 04:35:44;;;;;;;550.03;519.60;;;3.20;99.90;;;;;;6162299;23;20843;-81
2022/02/07 04:38:12;;;;;;;534.40;504.73;;;3.20;99.90;;;;;;6162408;23;20414;-81
2022/02/07 04:40:39;;;;;;;534.87;506.50;;;3.20;99.90;;;;;;6162003;23;20798;-81
2022/02/07 04:43:08;;;;;;;526.00;499.13;;;3.20;99.90;;;;;;6161320;23;20430;-81
2022/02/07 04:45:55;;;;;;;523.07;496.37;;;3.20;99.90;;;;;;6161421;23;20410;-81
2022/02/07 04:48:45;;;;;;;542.60;514.40;;;3.20;99.90;;;;;;6161983;23;20402;-81
2022/02/07 04:59:23;;;;;;;560.27;529.83;;;3.10;99.90;;;;;;6165659;23;20952;-81
2022/02/07 05:01:52;;;;;;;560.90;529.20;;;3.20;99.90;;;;;;6172309;23;20394;-81
2022/02/07 05:04:26;;;;;;;563.30;531.60;;;3.20;99.90;;;;;;6172905;23;20430;-80
2022/02/07 05:15:08;;;;;;;572.60;537.80;;;3.50;99.90;;;;;;6163614;23;20482;-81
2022/02/07 05:17:38;;;;;;;549.40;518.30;;;3.60;99.90;;;;;;6178011;23;20440;-80
2022/02/07 05:20:06;;;;;;;515.60;488.53;;;3.70;99.90;;;;;;6180810;23;20393;-81
2022/02/07 05:22:33;;;;;;;521.87;493.57;;;3.70;99.90;;;;;;6179487;23;20424;-80
2022/02/07 05:25:01;;;;;;;507.27;479.37;;;3.80;99.90;;;;;;6179432;23;20410;-83
2022/02/07 05:27:28;;;;;;;493.47;468.63;;;3.90;99.90;;;;;;6181304;23;20413;-83
2022/02/07 05:29:55;;;;;;;419.07;400.30;;;3.90;99.90;;;;;;6162560;23;20485;-83
2022/02/07 05:32:22;;;;;;;404.80;387.10;;;3.90;99.90;;;;;;6162496;23;20442;-83
2022/02/07 05:34:51;;;;;;;392.77;376.13;;;3.90;99.90;;;;;;6162452;23;20457;-83
2022/02/07 05:37:18;;;;;;;397.20;379.10;;;4.00;99.90;;;;;;6162813;23;20437;-83
2022/02/07 05:39:51;;;;;;;357.17;341.60;;;4.00;99.90;;;;;;6161723;23;20421;-83
2022/02/07 05:42:19;;;;;;;379.37;362.47;;;4.00;99.90;;;;;;6161936;23;20434;-83
2022/02/07 05:44:47;;;;;;;309.43;295.93;;;4.00;99.90;;;;;;6161294;23;20414;-84
2022/02/07 05:47:15;;;;;;;306.00;293.40;;;4.00;99.90;;;;;;6161306;23;20419;-81
2022/02/07 05:49:42;;;;;;;282.10;269.73;;;4.10;99.90;;;;;;6160655;23;20435;-81
2022/02/07 05:52:09;;;;;;;272.77;261.47;;;4.00;99.90;;;;;;6161437;23;20416;-81
2022/02/07 05:54:36;;;;;;;280.37;266.83;;;4.10;99.90;;;;;;6161641;23;20421;-81
2022/02/07 05:57:03;;;;;;;263.53;252.53;;;4.10;99.90;;;;;;6161198;23;20438;-81
2022/02/07 05:59:31;;;;;;;271.67;260.13;;;4.10;99.90;;;;;;6161211;23;20422;-82
2022/02/07 06:01:58;;;;;;;270.63;259.00;;;4.20;99.90;;;;;;6161850;23;20414;-81
2022/02/07 06:04:25;;;;;;;259.07;247.77;;;4.20;99.90;;;;;;6161192;23;20416;-80
2022/02/07 06:06:52;;;;;;;248.03;236.97;;;4.30;99.90;;;;;;6162171;23;20405;-81
2022/02/07 06:09:18;;;;;;;254.13;243.33;;;4.30;99.90;;;;;;6162457;23;20413;-80
2022/02/07 06:11:45;;;;;;;239.17;228.87;;;4.30;99.90;;;;;;6161524;23;20418;-80
2022/02/07 06:14:12;;;;;;;231.60;222.10;;;4.30;99.90;;;;;;6161305;23;20760;-80
2022/02/07 06:16:40;;;;;;;205.40;196.90;;;4.30;99.90;;;;;;6160545;23;20438;-80
2022/02/07 06:19:07;;;;;;;187.33;179.13;;;4.30;99.90;;;;;;6159214;23;20413;-79
2022/02/07 06:21:34;;;;;;;167.63;160.80;;;4.20;99.90;;;;;;6160780;23;20410;-80
2022/02/07 06:24:02;;;;;;;166.93;160.53;;;4.20;99.90;;;;;;6160448;23;20441;-81
2022/02/07 06:26:30;;;;;;;164.33;157.33;;;4.10;99.90;;;;;;6160331;23;20497;-80
2022/02/07 06:28:57;;;;;;;163.93;157.00;;;4.10;99.90;;;;;;6161833;23;20418;-80
2022/02/07 06:31:24;;;;;;;193.43;184.23;;;4.10;99.90;;;;;;6169666;23;20417;-79
2022/02/07 06:33:52;;;;;;;197.57;189.50;;;4.10;99.90;;;;;;6161158;23;20452;-80
2022/02/07 06:36:20;;;;;;;180.83;173.10;;;4.00;99.90;;;;;;6161335;23;20437;-78
2022/02/07 06:38:47;;;;;;;173.37;166.47;;;4.20;99.90;;;;;;6161563;23;20493;-80
2022/02/07 06:41:14;;;;;;;171.10;164.27;;;4.10;99.90;;;;;;6161704;23;20410;-80
2022/02/07 06:43:41;;;;;;;170.33;162.83;;;4.20;99.90;;;;;;6160783;23;20433;-80
2022/02/07 06:46:07;;;;;;;165.07;158.57;;;4.20;99.90;;;;;;6161391;23;20501;-80
2022/02/07 06:48:35;;;;;;;161.30;154.37;;;4.20;99.90;;;;;;6161879;23;20414;-79
2022/02/07 06:51:03;;;;;;;139.23;133.83;;;4.20;99.90;;;;;;6162263;23;20425;-79
2022/02/07 06:53:30;;;;;;;159.23;151.93;;;4.10;99.90;;;;;;6161473;23;20436;-80
2022/02/07 06:55:57;;;;;;;143.00;137.60;;;4.20;99.90;;;;;;6161920;23;20414;-80
2022/02/07 06:58:24;;;;;;;144.60;138.90;;;4.20;99.90;;;;;;6162411;23;20410;-81
2022/02/07 07:00:51;;;;;;;135.70;130.33;;;4.30;99.90;;;;;;6163101;23;20413;-79
2022/02/07 07:03:20;;;;;;;116.40;111.20;;;4.40;99.90;;;;;;6163241;23;20448;-80
2022/02/07 07:05:49;;;;;;;124.90;119.60;;;4.40;99.90;;;;;;6166289;23;20414;-80
2022/02/07 07:08:18;;;;;;;139.97;134.03;;;4.30;99.90;;;;;;6164561;23;20414;-80
2022/02/07 07:10:46;;;;;;;161.43;154.77;;;4.30;99.90;;;;;;6164307;23;20410;-80
2022/02/07 07:13:16;;;;;;;153.10;146.40;;;4.20;99.90;;;;;;6162951;23;20436;-80
2022/02/07 07:15:50;;;;;;;129.47;123.57;;;4.20;99.90;;;;;;6161846;23;20426;-79
2022/02/07 07:18:17;;;;;;;125.97;121.00;;;4.30;99.90;;;;;;6162102;23;20434;-82
2022/02/07 07:20:44;;;;;;;120.33;114.83;;;4.40;99.90;;;;;;6161852;23;20418;-80
2022/02/07 07:23:12;;;;;;;129.27;124.13;;;4.30;99.90;;;;;;6161439;23;20444;-81
2022/02/07 07:25:42;;;;;;;132.80;127.53;;;4.30;99.90;;;;;;6160530;23;20414;-81
2022/02/07 07:28:11;;;;;;;126.80;121.90;;;4.30;99.90;;;;;;6160536;23;20477;-79
2022/02/07 07:30:42;;;;;;;123.93;118.37;;;4.40;99.90;;;;;;6161244;23;20934;-79
2022/02/07 07:33:13;;;;;;;118.87;113.67;;;4.30;99.90;;;;;;6163296;23;20475;-82
2022/02/07 07:35:40;;;;;;;122.03;116.97;;;4.30;99.90;;;;;;6165126;23;20896;-82
2022/02/07 07:38:06;;;;;;;140.63;134.03;;;4.40;99.90;;;;;;6163864;23;20448;-81
2022/02/07 07:40:33;;;;;;;127.77;121.57;;;4.30;99.90;;;;;;6164947;23;20424;-81
2022/02/07 07:43:03;;;;;;;107.47;102.43;;;4.40;99.90;;;;;;6165651;23;20437;-81
2022/02/07 07:45:33;;;;;;;109.03;104.37;;;4.50;99.90;;;;;;6165115;23;20486;-80
2022/02/07 07:48:04;;;;;;;123.00;116.93;;;4.50;99.90;;;;;;6162991;23;20464;-82
2022/02/07 07:50:38;;;;;;;113.03;107.87;;;4.60;99.90;;;;;;6164764;23;20407;-82
2022/02/07 07:53:17;;;;;;;124.10;118.57;;;4.50;99.90;;;;;;6170425;23;20433;-81
2022/02/07 08:01:23;;;;;;;89.90;85.10;;;4.60;99.90;;;;;;6160171;23;20410;-81
2022/02/07 08:03:52;;;;;;;78.53;73.43;;;4.70;99.90;;;;;;6159571;23;20504;-81
2022/02/07 08:06:23;;;;;;;73.93;70.73;;;4.60;99.90;;;;;;6159291;23;20413;-81
2022/02/07 08:09:12;;;;;;;77.67;74.37;;;4.70;99.90;;;;;;6159184;23;20390;-82
2022/02/07 08:11:39;;;;;;;92.40;87.77;;;4.60;99.90;;;;;;6158807;23;20406;-81
2022/02/07 08:14:07;;;;;;;80.30;76.27;;;4.70;99.90;;;;;;6159491;23;20426;-81
2022/02/07 08:16:34;;;;;;;64.40;60.63;;;4.70;99.90;;;;;;6159609;23;20955;-81
2022/02/07 08:19:06;;;;;;;69.03;65.63;;;4.60;99.90;;;;;;6159730;23;20472;-81
2022/02/07 08:21:33;;;;;;;78.93;74.40;;;4.60;99.90;;;;;;6160684;23;20429;-81
2022/02/07 08:24:00;;;;;;;97.70;93.43;;;4.60;99.90;;;;;;6160428;23;20434;-80
2022/02/07 08:26:27;;;;;;;100.47;96.43;;;4.70;99.90;;;;;;6159811;23;20414;-81
2022/02/07 08:28:53;;;;;;;96.20;91.50;;;4.90;99.90;;;;;;6160367;23;20416;-81
2022/02/07 08:31:22;;;;;;;117.53;106.77;;;4.90;99.90;;;;;;6160205;23;20414;-81
2022/02/07 08:34:04;;;;;;;80.97;75.53;;;5.10;99.90;;;;;;6175074;23;20448;-80
2022/02/07 08:36:54;;;;;;;61.60;57.33;;;5.10;99.90;;;;;;6199175;23;20397;-83
2022/02/07 08:42:16;;;;;;;45.63;42.77;;;5.30;99.90;;;;;;6165108;23;20409;-83
2022/02/07 09:02:22;;;;;;;47.40;45.20;;;5.50;99.90;;;;;;6192507;23;20405;-84
2022/02/07 09:12:35;;;;;;;20.20;18.63;;;5.70;99.40;;;;;;6186788;23;20400;-83
2022/02/07 09:15:53;;;;;;;;;;;;;;;;;;;;;
2022/02/07 09:18:21;;;;;;;26.50;13.53;;;5.60;99.60;;;;;;6158520;23;20452;-80
2022/02/07 09:20:50;;;;;;;17.23;15.20;;;5.50;98.70;;;;;;6191496;23;20404;-80
2022/02/07 09:23:16;;;;;;;35.60;23.70;;;5.60;99.60;;;;;;6191535;23;20416;-80
2022/02/07 09:25:43;;;;;;;36.57;33.37;;;5.60;99.90;;;;;;6191813;23;20405;-81
2022/02/07 09:28:10;;;;;;;23.23;21.63;;;5.80;99.90;;;;;;6190742;23;20429;-80
2022/02/07 09:30:37;;;;;;;23.70;21.90;;;6.00;98.90;;;;;;6191526;23;20409;-81
2022/02/07 09:33:03;;;;;;;30.03;27.43;;;6.20;98.10;;;;;;6191158;23;20408;-80
2022/02/07 09:35:31;;;;;;;15.67;11.23;;;6.40;97.10;;;;;;6191039;23;20413;-81
2022/02/07 09:37:58;;;;;;;23.03;14.83;;;6.50;96.70;;;;;;6191869;23;20489;-81
2022/02/07 09:40:26;;;;;;;18.97;10.13;;;6.50;97.50;;;;;;6190923;23;20423;-81
2022/02/07 09:42:57;;;;;;;50.10;12.87;;;6.40;96.70;;;;;;6191259;23;20416;-80
2022/02/07 09:45:31;;;;;;;20.43;9.50;;;6.30;96.60;;;;;;6191268;23;20488;-81
2022/02/07 09:47:58;;;;;;;17.53;8.97;;;6.10;96.50;;;;;;6190788;23;20468;-80
2022/02/07 09:50:25;;;;;;;16.17;10.07;;;6.00;97.00;;;;;;6191529;23;20774;-80
2022/02/07 09:52:53;;;;;;;18.47;10.20;;;6.00;97.50;;;;;;6201206;23;20830;-81
2022/02/07 09:55:20;;;;;;;22.70;10.60;;;6.10;97.30;;;;;;6190759;23;20417;-80
2022/02/07 09:57:51;;;;;;;18.50;13.63;;;6.20;97.10;;;;;;6190817;23;20445;-80
2022/02/07 10:00:20;;;;;;;21.37;15.80;;;6.30;97.30;;;;;;6190863;23;20401;-80
2022/02/07 10:02:52;;;;;;;25.70;11.30;;;6.40;96.70;;;;;;6188763;23;20413;-81
2022/02/07 10:05:21;;;;;;;16.70;12.60;;;6.40;96.70;;;;;;6189548;23;20407;-80
2022/02/07 10:08:02;;;;;;;20.07;18.07;;;6.50;96.70;;;;;;6187240;23;20436;-81
2022/02/07 10:10:35;;;;;;;27.80;23.10;;;6.70;96.80;;;;;;6187617;23;20488;-81
2022/02/07 10:13:19;;;;;;;30.87;19.47;;;6.90;95.90;;;;;;6188407;23;20782;-81
2022/02/07 10:15:51;;;;;;;27.53;7.13;;;7.10;96.00;;;;;;6189778;23;20401;-81
2022/02/07 10:18:33;;;;;;;10.37;4.90;;;7.50;94.10;;;;;;6189516;23;20667;-81
2022/02/07 10:21:28;;;;;;;14.60;5.90;;;7.70;92.10;;;;;;6196537;23;20397;-82
2022/02/07 10:35:29;;;;;;;13.60;3.97;;;8.20;87.40;;;;;;6190681;23;20384;-82
2022/02/07 10:38:21;;;;;;;16.10;3.33;;;8.10;86.70;;;;;;6190794;23;20473;-81
2022/02/07 10:43:44;;;;;;;18.03;6.23;;;7.70;87.40;;;;;;6184567;23;20413;-81
2022/02/07 10:46:14;;;;;;;16.47;4.17;;;7.50;91.30;;;;;;6189765;23;20420;-81
2022/02/07 10:48:43;;;;;;;21.00;4.40;;;7.30;91.60;;;;;;6189225;23;20456;-81
2022/02/07 10:51:16;;;;;;;20.93;5.30;;;7.20;91.30;;;;;;6201922;23;20405;-81
2022/02/07 10:53:45;;;;;;;20.13;4.13;;;7.30;92.20;;;;;;6210516;23;20488;-83
2022/02/07 10:56:15;;;;;;;17.20;4.10;;;7.10;92.90;;;;;;6202759;23;20463;-83
2022/02/07 10:58:43;;;;;;;15.93;4.20;;;7.10;93.90;;;;;;6198253;23;20447;-84
2022/02/07 11:01:16;;;;;;;10.87;3.60;;;7.10;93.60;;;;;;6189812;23;20413;-83
2022/02/07 11:03:48;;;;;;;12.63;4.37;;;7.20;93.70;;;;;;6200574;23;20773;-82
2022/02/07 11:06:16;;;;;;;19.40;4.50;;;7.30;94.00;;;;;;6190292;23;20400;-83
2022/02/07 11:08:50;;;;;;;21.77;4.20;;;7.20;92.40;;;;;;6201958;23;20436;-82
2022/02/07 11:11:39;;;;;;;24.13;4.87;;;7.30;93.00;;;;;;6206080;23;20387;-81
2022/02/07 11:17:07;;;;;;;11.67;4.40;;;7.50;91.90;;;;;;6207031;23;20389;-82
2022/02/07 11:19:47;;;;;;;17.37;6.27;;;7.50;92.40;;;;;;6210609;23;20441;-82
2022/02/07 11:22:32;;;;;;;13.63;4.83;;;7.80;92.70;;;;;;6188522;23;20390;-82
2022/02/07 11:25:19;;;;;;;18.97;5.60;;;7.70;91.50;;;;;;6190021;23;20401;-82
2022/02/07 11:27:51;;;;;;;22.77;3.97;;;7.70;90.50;;;;;;6188755;23;20428;-82
2022/02/07 11:30:20;;;;;;;15.40;4.27;;;7.90;90.40;;;;;;6189076;23;20431;-82
2022/02/07 11:32:57;;;;;;;15.97;4.30;;;8.40;90.30;;;;;;6188376;23;20409;-82
2022/02/07 11:35:27;;;;;;;18.27;4.90;;;8.40;89.30;;;;;;6189346;23;20393;-82
2022/02/07 11:38:11;;;;;;;20.80;6.70;;;8.30;88.40;;;;;;6188642;23;20528;-81
2022/02/07 11:40:40;;;;;;;16.10;4.30;;;8.40;90.20;;;;;;6188857;23;20402;-81
2022/02/07 11:43:13;;;;;;;20.80;5.20;;;8.50;89.90;;;;;;6189440;23;20417;-82
2022/02/07 11:45:52;;;;;;;14.63;4.07;;;8.40;87.30;;;;;;6192975;23;20714;-82
2022/02/07 11:48:28;;;;;;;19.60;4.60;;;8.40;89.70;;;;;;6197228;23;20428;-81
2022/02/07 11:50:58;;;;;;;14.40;4.43;;;8.20;88.40;;;;;;6189293;23;20393;-81
2022/02/07 11:53:31;;;;;;;20.93;5.63;;;8.00;90.30;;;;;;6189043;23;20413;-81
2022/02/07 11:56:09;;;;;;;15.90;4.00;;;7.90;91.40;;;;;;6189304;23;20403;-81
2022/02/07 11:59:10;;;;;;;15.50;5.80;;;7.70;92.10;;;;;;6188471;23;20448;-81
2022/02/07 12:01:50;;;;;;;21.10;15.87;;;6.80;99.90;;;;;;6189933;23;20786;-81
2022/02/07 12:04:32;;;;;;;22.40;15.37;;;6.40;99.90;;;;;;6189691;23;20428;-80
2022/02/07 12:07:27;;;;;;;54.30;51.33;;;6.40;99.90;;;;;;6189119;23;20412;-81
2022/02/07 12:10:15;;;;;;;108.73;103.77;;;6.40;99.90;;;;;;6185996;23;20405;-80
2022/02/07 12:12:47;;;;;;;117.30;111.17;;;6.70;99.90;;;;;;6188153;23;20453;-81
2022/02/07 12:15:22;;;;;;;24.23;22.47;;;7.00;99.90;;;;;;6188444;23;20914;-81
2022/02/07 12:17:51;;;;;;;15.20;8.47;;;7.00;99.90;;;;;;6193455;23;20447;-82
2022/02/07 12:20:19;;;;;;;10.97;6.47;;;7.00;96.90;;;;;;6190100;23;20401;-82
2022/02/07 12:22:51;;;;;;;19.80;8.57;;;6.90;96.90;;;;;;6189914;23;20423;-81
2022/02/07 12:25:26;;;;;;;12.87;6.47;;;7.00;97.60;;;;;;6190303;23;20420;-81
2022/02/07 12:27:53;;;;;;;12.80;5.63;;;7.00;98.00;;;;;;6189240;23;20467;-81
2022/02/07 12:30:43;;;;;;;14.20;5.50;;;7.10;93.60;;;;;;6189367;23;20444;-81
2022/02/07 12:33:10;;;;;;;21.57;4.40;;;7.40;93.30;;;;;;6190434;23;20394;-82
2022/02/07 12:35:37;;;;;;;10.33;4.20;;;7.30;92.10;;;;;;6190274;23;20439;-82
2022/02/07 12:38:04;;;;;;;13.70;4.70;;;7.50;90.00;;;;;;6190183;23;20440;-82
2022/02/07 12:40:31;;;;;;;12.70;2.97;;;7.30;89.70;;;;;;6189855;23;20439;-82
2022/02/07 12:42:58;;;;;;;9.70;3.90;;;7.20;88.90;;;;;;6190376;23;20792;-82
2022/02/07 12:45:29;;;;;;;15.37;3.83;;;7.80;87.10;;;;;;6189631;23;20420;-82
2022/02/07 12:47:57;;;;;;;19.63;4.30;;;7.80;87.50;;;;;;6189471;23;20480;-82
2022/02/07 12:50:26;;;;;;;12.20;3.50;;;7.80;87.20;;;;;;6189323;23;20933;-82
2022/02/07 12:52:56;;;;;;;18.70;5.30;;;8.00;87.80;;;;;;6189463;23;20417;-82
2022/02/07 12:55:24;;;;;;;7.03;2.93;;;7.80;87.60;;;;;;6189585;23;20907;-82
2022/02/07 12:57:50;;;;;;;19.20;4.67;;;7.80;80.40;;;;;;6190028;23;20839;-82
2022/02/07 13:00:20;;;;;;;14.38;3.80;;;7.70;80.30;;;;;;6189321;23;20415;-81
2022/02/07 13:02:50;;;;;;;19.77;4.77;;;7.60;79.30;;;;;;6189750;23;20177;-82
2022/02/07 13:05:20;;;;;;;12.83;3.10;;;7.50;79.80;;;;;;6189097;23;20413;-81
2022/02/07 13:07:50;;;;;;;11.27;3.00;;;7.50;75.80;;;;;;6198955;23;20437;-82
2022/02/07 13:10:20;;;;;;;8.07;2.70;;;7.40;75.70;;;;;;6189549;23;20982;-82
2022/02/07 13:12:54;;;;;;;16.53;3.20;;;7.40;75.70;;;;;;6190381;23;21001;-81
2022/02/07 13:15:23;;;;;;;17.47;3.70;;;7.20;78.20;;;;;;6190398;23;20401;-80
2022/02/07 13:17:56;;;;;;;12.23;3.43;;;7.20;77.40;;;;;;6190028;23;20447;-81
2022/02/07 13:20:24;;;;;;;11.30;3.27;;;7.20;81.20;;;;;;6188978;23;20495;-82
2022/02/07 13:23:02;;;;;;;17.13;4.13;;;7.20;78.50;;;;;;6190649;23;20459;-81
2022/02/07 13:28:46;;;;;;;15.93;3.37;;;7.20;80.30;;;;;;6199152;23;20918;-82
2022/02/07 13:31:13;;;;;;;18.20;5.33;;;7.40;79.80;;;;;;6189390;23;20930;-81
2022/02/07 13:33:48;;;;;;;17.63;3.90;;;7.90;79.50;;;;;;6190399;23;20409;-82
2022/02/07 13:36:26;;;;;;;17.43;4.47;;;8.10;77.50;;;;;;6189416;23;20412;-82
2022/02/07 13:38:53;;;;;;;13.97;3.80;;;8.30;80.30;;;;;;6190371;23;20455;-82
2022/02/07 13:41:21;;;;;;;7.87;3.50;;;8.30;75.30;;;;;;6190451;23;20933;-81
2022/02/07 13:43:48;;;;;;;13.70;3.73;;;8.10;76.30;;;;;;6190074;23;20413;-81
2022/02/07 13:46:17;;;;;;;11.23;3.30;;;8.20;76.40;;;;;;6190338;23;20427;-82
2022/02/07 13:48:46;;;;;;;8.70;2.80;;;8.20;72.90;;;;;;6199764;23;20966;-82
2022/02/07 13:51:15;;;;;;;11.40;3.00;;;8.20;73.50;;;;;;6189332;23;20416;-81
2022/02/07 13:53:44;;;;;;;14.83;3.90;;;8.20;73.80;;;;;;6189532;23;20926;-81
2022/02/07 13:56:10;;;;;;;10.80;3.00;;;8.20;73.80;;;;;;6190325;23;20417;-82
2022/02/07 13:58:39;;;;;;;11.57;2.93;;;8.10;72.40;;;;;;6188874;23;20447;-82
2022/02/07 14:01:10;;;;;;;15.70;3.03;;;8.30;72.00;;;;;;6190371;23;20413;-82
2022/02/07 14:03:42;;;;;;;15.03;3.30;;;8.40;74.10;;;;;;6189422;23;20401;-81
2022/02/07 14:06:18;;;;;;;10.67;3.33;;;8.20;71.80;;;;;;6190328;23;20831;-82
2022/02/07 14:08:49;;;;;;;12.03;3.60;;;8.40;72.60;;;;;;6188195;23;20435;-80
2022/02/07 14:11:19;;;;;;;11.37;3.33;;;8.40;70.90;;;;;;6190034;23;20401;-82
2022/02/07 14:13:46;;;;;;;10.93;2.70;;;8.50;68.70;;;;;;6189658;23;20419;-82
2022/02/07 14:16:15;;;;;;;8.50;2.10;;;8.70;69.80;;;;;;6187339;23;20412;-83
2022/02/07 14:18:45;;;;;;;13.57;3.03;;;8.60;65.20;;;;;;6188588;23;20476;-81
2022/02/07 14:21:12;;;;;;;8.83;2.80;;;8.70;67.10;;;;;;6187202;23;20420;-81
2022/02/07 14:23:43;;;;;;;11.83;2.83;;;8.80;63.70;;;;;;6189746;23;20833;-82
2022/02/07 14:26:15;;;;;;;20.20;3.83;;;8.80;64.80;;;;;;6189908;23;20442;-82
2022/02/07 14:28:42;;;;;;;12.33;3.00;;;8.80;62.90;;;;;;6189344;23;20429;-82
2022/02/07 14:31:11;;;;;;;16.33;3.80;;;8.80;63.50;;;;;;6188253;23;20417;-82
2022/02/07 14:33:38;;;;;;;8.73;3.00;;;8.70;62.10;;;;;;6187777;23;20915;-81
2022/02/07 14:36:06;;;;;;;14.97;3.47;;;8.50;61.50;;;;;;6189081;23;20724;-81
2022/02/07 14:38:33;;;;;;;8.83;2.90;;;8.60;63.00;;;;;;6188026;23;20441;-81
2022/02/07 14:41:01;;;;;;;12.13;2.90;;;8.50;61.00;;;;;;6188631;23;20452;-81
2022/02/07 14:43:30;;;;;;;7.77;2.37;;;8.50;62.10;;;;;;6187827;23;20412;-81
2022/02/07 14:46:07;;;;;;;15.80;3.67;;;8.50;61.90;;;;;;6188759;23;20794;-82
2022/02/07 14:48:35;;;;;;;9.83;2.80;;;8.40;60.60;;;;;;6188585;23;20487;-81
2022/02/07 14:51:06;;;;;;;11.70;2.80;;;8.30;62.40;;;;;;6188545;23;20733;-81
2022/02/07 14:53:32;;;;;;;10.10;3.17;;;8.20;60.40;;;;;;6188213;23;20729;-81
2022/02/07 14:56:01;;;;;;;18.97;3.50;;;8.00;62.90;;;;;;6198339;23;20401;-81
2022/02/07 14:58:27;;;;;;;9.57;2.37;;;7.90;64.20;;;;;;6187841;23;20520;-81
2022/02/07 15:00:54;;;;;;;16.83;3.60;;;7.70;62.90;;;;;;6188453;23;20719;-81
2022/02/07 15:03:21;;;;;;;10.47;3.10;;;7.80;62.70;;;;;;6188231;23;20415;-81
2022/02/07 15:05:53;;;;;;;14.20;3.13;;;7.90;64.60;;;;;;6187693;23;20500;-81
2022/02/07 15:08:20;;;;;;;11.70;3.10;;;7.90;62.50;;;;;;6187719;23;21042;-81
2022/02/07 15:10:46;;;;;;;11.87;3.13;;;8.00;64.00;;;;;;6186658;23;20413;-81
2022/02/07 15:13:15;;;;;;;16.70;3.10;;;8.00;65.40;;;;;;6188550;23;20424;-82
2022/02/07 15:15:42;;;;;;;9.67;3.00;;;7.80;63.90;;;;;;6187825;23;20417;-82
2022/02/07 15:18:23;;;;;;;9.37;3.80;;;7.80;62.60;;;;;;6185015;23;20452;-87
2022/02/07 15:20:51;;;;;;;12.77;2.63;;;7.70;63.90;;;;;;6203715;23;20428;-84
2022/02/07 15:23:23;;;;;;;7.63;2.90;;;7.80;63.80;;;;;;6204264;23;20432;-83
2022/02/07 15:26:26;;;;;;;8.57;2.70;;;7.60;64.70;;;;;;6192724;23;20404;-84
2022/02/07 15:32:51;;;;;;;8.57;2.73;;;7.60;63.40;;;;;;6058936;23;20408;-84
2022/02/07 15:38:53;;;;;;;11.67;2.60;;;7.40;64.40;;;;;;6020436;23;20431;-84
2022/02/07 15:41:34;;;;;;;9.83;2.53;;;7.40;65.30;;;;;;6151149;23;20448;-83
2022/02/07 15:44:43;;;;;;;12.47;2.80;;;7.30;66.10;;;;;;6201522;23;20828;-84
2022/02/07 15:47:48;;;;;;;10.10;2.63;;;7.20;66.00;;;;;;6174322;23;20806;-84
2022/02/07 15:50:54;;;;;;;20.33;3.80;;;7.20;67.60;;;;;;6179030;23;20449;-86
2022/02/07 15:53:55;;;;;;;8.67;3.13;;;7.10;67.60;;;;;;6202478;23;20408;-85
2022/02/07 15:56:52;;;;;;;15.33;4.10;;;7.10;66.40;;;;;;6148525;23;20802;-83
2022/02/07 15:59:46;;;;;;;13.50;3.00;;;7.10;67.20;;;;;;6199026;23;20448;-85
2022/02/07 16:08:59;;;;;;;13.53;2.40;;;6.80;67.30;;;;;;6187467;23;20428;-85
2022/02/07 16:11:57;;;;;;;7.10;2.40;;;6.70;69.00;;;;;;6188504;23;20440;-85
2022/02/07 16:14:39;;;;;;;14.47;2.53;;;6.60;68.50;;;;;;6198411;23;20785;-87
2022/02/07 16:17:12;;;;;;;10.80;3.67;;;6.30;68.50;;;;;;6198735;23;20396;-86
2022/02/07 16:19:56;;;;;;;12.60;2.90;;;6.40;68.40;;;;;;6197145;23;20447;-84
2022/02/07 16:32:18;;;;;;;11.70;6.40;;;6.00;70.10;;;;;;6059029;23;21009;-83
2022/02/07 16:35:34;;;;;;;14.13;3.87;;;5.90;71.30;;;;;;6060437;23;20420;-84
2022/02/07 16:45:09;;;;;;;10.40;3.93;;;5.80;70.40;;;;;;6136173;23;20493;-83